Řízení letového provozu České republiky  
Aktualizace dat:  24.11.2014 13:35:26 UTC English version
   METEO Zobrazení stránky:  24.11.2014 13:35:34 UTC  
vysvětlivky
METAR EDDB 241320Z 27009KT 9999 SCT011 BKN040 09/08 Q1021 NOSIG=
METAR EDDC 241320Z 22005KT 9999 BKN018 07/06 Q1023 NOSIG=
METAR EDDE 241320Z 32007KT 9999 FEW016 SCT100 08/05 Q1024 NOSIG=
METAR EDDF 241320Z VRB02KT 9999 FEW013 BKN030 BKN041 09/07 Q1025 BECMG 03005KT=
METAR EDDM 241320Z 15003KT 130V200 9999 FEW017 BKN100 07/05 Q1023 NOSIG=
METAR EDDN 241320Z 34003KT 280V030 9999 SCT011 BKN027 07/05 Q1024 NOSIG=
METAR EDDP 241320Z 31009KT 9999 BKN015 SCT020 09/07 Q1023 NOSIG=
METAR EDDT 241320Z 28006KT 9999 FEW014 BKN019 09/08 Q1021 NOSIG=
METAR COR EDQM 241320Z VRB02KT 5000 -RA BKN016 OVC029 05/04 Q1023=
METAR EPBY 241330Z 16004KT 120V210 CAVOK 05/00 Q1021 =
METAR EPGD 241330Z 19011G23KT 150V230 CAVOK 04/M01 Q1020 =
METAR EPKK 241330Z 10004KT 060V120 CAVOK 04/M00 Q1024 =
METAR EPKT 241330Z 15005KT 110V190 CAVOK 04/M00 Q1024 =
METAR EPLL 241330Z 15010KT CAVOK 04/M03 Q1023 =
METAR EPPO 241330Z 19007KT 4000 -RA BR BKN018 05/03 Q1022 =
METAR EPRZ 241330Z 11013KT CAVOK 03/M00 Q1027 =
METAR EPWA 241330Z 14014KT CAVOK 03/M01 Q1025 NOSIG=
METAR EPWR 241330Z 14003KT 9999 SCT030 07/04 Q1022 =
METAR LHBP 241330Z 07010KT 9999 BKN027 05/01 Q1027 NOSIG=
METAR LHSM 241315Z 19005KT 9999 FEW015 05/02 Q1027 NOSIG=
METAR LKCV 241300Z 14008KT 9999 BKN020 OVC100 06/04 Q1024 NOSIG=
METAR LKKB 241300Z VRB01KT 6000 OVC012 05/03 Q1023 NOSIG =
METAR LKKU 241300Z 17013KT 130V220 9999 FEW024 BKN027 06/01 Q1025=
METAR LKKV 241330Z 29003KT 2300 -RA BR SCT002 OVC006 04/04 Q1022=
SPECI LKLN 241313Z AUTO 00000KT 5000 OVC010 05/// Q1024=
METAR LKMT 241330Z 22015KT CAVOK 05/01 Q1024 NOSIG=
METAR LKNA 241300Z 15013KT 2000 -RA BR OVC003 02/02 Q1023 NOSIG=
METAR LKPD 241300Z 18004KT 8000 BKN023 OVC110 06/02 Q1024 NOSIG =
METAR LKPR 241330Z 26002KT 5000 BR OVC010 05/03 Q1023 NOSIG=
METAR LKTB 241330Z 16004KT 7000 OVC021 05/02 Q1025 NOSIG=
METAR LKVO 241300Z 10004KT 4500 -RA BR OVC012 05/03 Q1024=
METAR LOWI 241320Z VRB02KT 9999 FEW100 SCT300 14/07 Q1021 NOSIG=
METAR LOWL 241320Z 12004KT 080V140 6000 BKN009 BKN110 05/03 Q1023 TEMPO SCT009 BKN100=
METAR LOWS 241320Z VRB02KT CAVOK 08/06 Q1023 NOSIG=
METAR LOWW 241320Z 15011KT 4800 BR FEW007 BKN009 04/03 Q1026 TEMPO TL1345 SHRA=
METAR LZIB 241330Z 13009KT 9999 FEW020 BKN025 06/02 Q1026 NOSIG=
METAR LZKZ 241330Z 00000KT 9999 FEW030 04/M02 Q1027 NOSIG=
METAR LZPP 241330Z 14007KT 110V170 9999 OVC027 06/00 Q1027=
METAR LZSL 241330Z VRB01KT 9000 OVC024 03/00 Q1027=
METAR LZTT 241330Z VRB01KT 2500 BR OVC002 M01/M01 Q1025 TEMPO 3000 BR=
METAR LZZI 241330Z 24009KT 9999 FEW027 05/M00 Q1025=